Time;durP1;ratioP1;P1;durP2;ratioP2;P2;SDS_P1;SDS_P2;PMS_P1;PMS_P2;Temp;Humidity;BMP_temperature;BMP_pressure;BME280_temperature;BME280_humidity;BME280_pressure;Samples;Min_cycle;Max_cycle;Signal;HPM_P1;HPM_P2
2021/03/22 00:01:36;;;;;;;17.48;4.90;;;;;;;7.99;50.16;97615.59;5080369;28;20460;-77
2021/03/22 00:04:02;;;;;;;12.50;4.25;;;;;;;7.64;51.06;97612.75;5055381;28;20036;-76
2021/03/22 00:06:28;;;;;;;25.35;4.95;;;;;;;7.65;51.05;97627.31;5072787;28;20036;-77
2021/03/22 00:08:57;;;;;;;17.10;5.10;;;;;;;7.52;50.97;97630.78;5069446;28;20040;-77
2021/03/22 00:11:25;;;;;;;17.40;4.95;;;;;;;7.66;51.25;97619.31;5047213;28;20050;-77
2021/03/22 00:13:50;;;;;;;18.88;5.85;;;;;;;7.48;51.91;97621.88;5056035;28;20482;-77
2021/03/22 00:16:16;;;;;;;17.60;4.93;;;;;;;7.24;52.74;97621.66;5038049;28;20078;-77
2021/03/22 00:18:42;;;;;;;19.20;5.35;;;;;;;7.32;52.35;97628.38;5045438;28;20024;-76
2021/03/22 00:21:10;;;;;;;24.75;6.32;;;;;;;7.45;51.71;97615.31;5055016;28;20077;-77
2021/03/22 00:23:35;;;;;;;13.70;5.13;;;;;;;7.51;51.91;97608.50;5061204;28;20029;-77
2021/03/22 00:26:01;;;;;;;23.85;6.18;;;;;;;7.40;52.12;97619.53;5053142;28;20032;-77
2021/03/22 00:28:27;;;;;;;22.92;5.38;;;;;;;7.31;52.58;97606.06;5047666;28;20032;-77
2021/03/22 00:30:53;;;;;;;19.08;4.80;;;;;;;7.23;52.43;97612.31;5065932;28;20071;-77
2021/03/22 00:33:20;;;;;;;23.10;5.18;;;;;;;7.16;52.56;97616.75;5034762;28;20020;-77
2021/03/22 00:35:48;;;;;;;18.13;5.38;;;;;;;7.23;52.60;97617.50;5068182;28;20024;-77
2021/03/22 00:38:15;;;;;;;20.70;5.43;;;;;;;7.34;52.23;97615.22;5039013;28;20478;-77
2021/03/22 00:40:43;;;;;;;22.13;5.97;;;;;;;7.18;52.72;97614.75;5085448;28;20074;-77
2021/03/22 00:43:09;;;;;;;10.88;4.63;;;;;;;7.44;52.33;97618.13;5077044;28;20059;-77
2021/03/22 00:45:35;;;;;;;19.25;5.25;;;;;;;7.52;51.84;97619.66;5051442;28;20036;-76
2021/03/22 00:48:00;;;;;;;14.75;4.90;;;;;;;7.53;52.15;97606.47;5054308;28;20089;-77
2021/03/22 00:50:30;;;;;;;12.18;4.55;;;;;;;7.47;52.21;97615.91;5078889;28;20114;-76
2021/03/22 00:52:57;;;;;;;16.73;5.05;;;;;;;7.58;51.88;97611.03;5088396;28;20119;-76
2021/03/22 00:55:23;;;;;;;14.57;6.05;;;;;;;7.63;51.55;97613.78;5061631;28;20528;-76
2021/03/22 00:57:49;;;;;;;16.63;5.05;;;;;;;7.66;51.92;97613.34;5071129;28;20114;-76
2021/03/22 01:00:39;;;;;;;18.73;4.65;;;;;;;7.24;52.69;97616.47;5066046;28;20032;-76
2021/03/22 01:03:06;;;;;;;15.75;4.53;;;;;;;7.58;51.75;97603.25;5065669;28;20044;-77
2021/03/22 01:05:32;;;;;;;22.42;6.22;;;;;;;7.55;51.90;97607.03;5044361;28;20036;-76
2021/03/22 01:07:57;;;;;;;12.13;4.68;;;;;;;7.54;51.85;97595.13;5053684;28;20547;-76
2021/03/22 01:10:36;;;;;;;16.10;5.05;;;;;;;7.36;51.70;97600.25;5087977;28;20028;-76
2021/03/22 01:13:03;;;;;;;20.15;5.35;;;;;;;7.61;51.52;97603.63;5055736;28;20546;-77
2021/03/22 01:15:29;;;;;;;18.67;5.65;;;;;;;7.65;51.12;97601.38;5054657;28;20063;-76
2021/03/22 01:17:54;;;;;;;18.10;4.85;;;;;;;7.59;51.75;97603.03;5087725;28;20063;-77
2021/03/22 01:20:26;;;;;;;13.15;4.65;;;;;;;7.55;51.55;97596.69;5065126;28;20036;-77
2021/03/22 01:22:52;;;;;;;15.98;5.20;;;;;;;7.54;51.77;97599.50;5081866;28;20028;-76
2021/03/22 01:25:17;;;;;;;10.32;4.45;;;;;;;7.68;51.73;97601.75;5055149;28;20043;-76
2021/03/22 01:27:42;;;;;;;18.17;5.03;;;;;;;7.64;51.36;97592.81;5049006;28;20028;-76
2021/03/22 01:30:34;;;;;;;16.65;5.65;;;;;;;7.34;51.92;97594.50;5071353;28;20024;-77
2021/03/22 01:33:00;;;;;;;16.95;5.50;;;;;;;7.48;52.06;97580.41;5066394;28;20566;-77
2021/03/22 01:35:26;;;;;;;22.45;6.22;;;;;;;7.02;53.42;97589.38;5078445;28;20119;-76
2021/03/22 01:37:52;;;;;;;20.52;7.47;;;;;;;7.22;52.98;97582.25;5072794;28;20066;-77
2021/03/22 01:40:58;;;;;;;18.50;5.63;;;;;;;6.82;54.21;97582.56;5073030;28;20125;-77
2021/03/22 01:43:59;;;;;;;18.92;6.20;;;;;;;6.59;54.61;97569.34;5064239;28;20537;-77
2021/03/22 01:46:25;;;;;;;22.88;6.53;;;;;;;7.10;54.17;97569.19;5048063;28;20044;-77
2021/03/22 01:48:51;;;;;;;17.58;6.15;;;;;;;7.33;53.01;97570.38;5068300;28;20090;-77
2021/03/22 01:51:17;;;;;;;19.98;6.65;;;;;;;7.44;52.77;97577.47;5072684;28;20040;-77
2021/03/22 01:53:43;;;;;;;18.60;6.15;;;;;;;7.19;53.14;97574.09;5072696;28;20420;-77
2021/03/22 01:56:31;;;;;;;25.77;6.30;;;;;;;7.26;53.11;97572.25;5065851;28;20123;-77
2021/03/22 01:58:57;;;;;;;18.67;5.90;;;;;;;7.24;53.00;97575.03;5078231;28;20371;-77
2021/03/22 02:01:24;;;;;;;20.55;6.50;;;;;;;7.46;52.39;97578.03;5043917;28;20032;-77
2021/03/22 02:03:49;;;;;;;14.88;5.13;;;;;;;7.50;52.82;97575.81;5076911;22;21179;-74
2021/03/22 02:06:15;;;;;;;21.13;5.80;;;;;;;7.61;52.27;97572.53;5024682;28;20036;-75
2021/03/22 02:08:42;;;;;;;17.55;6.82;;;;;;;7.46;52.20;97567.66;5034222;28;20029;-75
2021/03/22 02:11:20;;;;;;;17.65;6.10;;;;;;;7.44;51.47;97567.09;5037168;28;20029;-75
2021/03/22 02:13:45;;;;;;;16.20;5.78;;;;;;;7.47;51.67;97568.44;5036390;28;20044;-76
2021/03/22 02:16:22;;;;;;;20.30;6.57;;;;;;;7.54;52.55;97571.81;5036700;28;20028;-75
2021/03/22 02:19:12;;;;;;;16.08;6.03;;;;;;;7.31;51.77;97569.81;5036613;28;20029;-75
2021/03/22 02:22:18;;;;;;;18.65;5.70;;;;;;;6.81;54.01;97569.81;5019215;28;20028;-76
2021/03/22 02:24:58;;;;;;;;;;;;;;;6.47;54.42;97570.00;5053232;28;20091;-76
2021/03/22 02:27:35;;;;;;;16.02;5.78;;;;;;;7.02;52.38;97569.44;5056950;28;19908;-75
2021/03/22 02:30:18;;;;;;;15.50;4.63;;;;;;;6.97;52.63;97574.47;5052837;28;20036;-75
2021/03/22 02:33:09;;;;;;;15.80;5.15;;;;;;;6.81;52.68;97575.00;5036472;28;20573;-75
2021/03/22 02:35:44;;;;;;;12.25;4.50;;;;;;;6.94;52.43;97574.91;5035524;28;20087;-76
2021/03/22 02:38:29;;;;;;;;;;;;;;;6.96;52.23;97579.84;5026220;28;20123;-75
2021/03/22 02:41:15;;;;;;;13.65;4.38;;;;;;;7.17;51.82;97589.84;5052692;28;19909;-75
2021/03/22 02:43:41;;;;;;;15.52;5.50;;;;;;;7.23;51.90;97578.66;5052546;28;20037;-75
2021/03/22 02:46:08;;;;;;;12.65;4.97;;;;;;;7.24;51.18;97588.00;5052636;28;20032;-75
2021/03/22 02:48:35;;;;;;;19.13;6.38;;;;;;;7.26;51.76;97574.84;5036234;28;20036;-75
2021/03/22 02:51:12;;;;;;;16.80;5.45;;;;;;;7.10;52.01;97576.16;5035945;28;20028;-75
2021/03/22 02:54:02;;;;;;;20.40;5.18;;;;;;;7.13;51.60;97580.94;5035839;28;20035;-75
2021/03/22 02:56:44;;;;;;;12.38;4.28;;;;;;;6.92;52.21;97580.28;5052284;28;20635;-75
2021/03/22 02:59:16;;;;;;;16.27;6.10;;;;;;;7.43;51.80;97577.69;5034095;28;20036;-75
2021/03/22 03:01:45;;;;;;;13.75;4.90;;;;;;;7.09;52.13;97584.94;5052692;28;20526;-76
2021/03/22 03:04:13;;;;;;;11.02;5.18;;;;;;;7.15;51.48;97581.50;5051822;28;20399;-75
2021/03/22 03:06:48;;;;;;;16.75;5.72;;;;;;;7.23;50.81;97578.66;5029313;28;20047;-75
2021/03/22 03:09:17;;;;;;;13.73;5.70;;;;;;;7.26;51.50;97578.22;5048608;28;20071;-75
2021/03/22 03:11:42;;;;;;;12.23;5.05;;;;;;;7.18;52.08;97582.88;5012958;28;20066;-76
2021/03/22 03:14:10;;;;;;;20.83;5.20;;;;;;;7.21;51.70;97574.69;5048445;28;20040;-75
2021/03/22 03:16:36;;;;;;;13.52;3.90;;;;;;;7.38;50.95;97575.72;5009610;28;20036;-75
2021/03/22 03:19:01;;;;;;;15.55;4.60;;;;;;;7.29;51.84;97582.97;5028889;28;20547;-74
2021/03/22 03:21:27;;;;;;;16.23;4.38;;;;;;;7.22;51.05;97579.66;5051941;28;20040;-75
2021/03/22 03:23:53;;;;;;;13.30;3.72;;;;;;;7.04;51.96;97593.34;5051786;28;20028;-75
2021/03/22 03:26:18;;;;;;;21.77;4.43;;;;;;;6.65;53.13;97584.84;5035463;28;20063;-76
2021/03/22 03:28:43;;;;;;;8.75;3.50;;;;;;;6.93;52.42;97584.44;5048154;28;20733;-75
2021/03/22 03:31:09;;;;;;;14.63;5.15;;;;;;;6.89;52.23;97587.69;5019198;28;20043;-75
2021/03/22 03:33:34;;;;;;;13.43;2.83;;;;;;;6.86;52.48;97580.34;5034846;28;20021;-76
2021/03/22 03:36:00;;;;;;;12.02;3.50;;;;;;;6.85;52.48;97587.28;5049057;28;20039;-77
2021/03/22 03:38:25;;;;;;;12.55;3.47;;;;;;;7.18;51.08;97596.63;5051808;28;20033;-75
2021/03/22 03:40:51;;;;;;;12.07;2.92;;;;;;;7.11;52.10;97586.31;5070078;28;20728;-75
2021/03/22 03:43:17;;;;;;;11.32;3.65;;;;;;;7.13;51.23;97593.88;5007343;28;20021;-75
2021/03/22 03:45:44;;;;;;;12.77;3.55;;;;;;;7.17;51.72;97597.63;5034426;28;20558;-75
2021/03/22 03:48:18;;;;;;;13.93;3.13;;;;;;;6.80;51.74;97600.06;5051841;28;20459;-75
2021/03/22 03:50:44;;;;;;;11.35;3.58;;;;;;;7.14;52.54;97600.63;5034970;28;20024;-75
2021/03/22 03:53:12;;;;;;;15.98;3.35;;;;;;;6.87;52.53;97590.47;5051822;28;20471;-75
2021/03/22 03:55:38;;;;;;;15.30;3.45;;;;;;;6.94;52.02;97595.63;5034343;28;20123;-75
2021/03/22 03:58:05;;;;;;;12.63;3.33;;;;;;;7.01;51.98;97595.53;5051739;28;20436;-75
2021/03/22 04:00:42;;;;;;;16.02;3.20;;;;;;;7.03;51.49;97593.56;5035057;28;20043;-75
2021/03/22 04:03:26;;;;;;;21.33;4.47;;;;;;;6.62;52.33;97600.78;5051397;28;20531;-75
2021/03/22 04:06:22;;;;;;;14.02;3.80;;;;;;;6.12;53.52;97593.66;5027429;28;20048;-76
2021/03/22 04:08:52;;;;;;;;;;;;;;;6.21;53.52;97599.38;5010360;28;20044;-75
2021/03/22 04:11:23;;;;;;;12.07;3.13;;;;;;;6.69;52.45;97598.16;5051745;28;19908;-75
2021/03/22 04:13:48;;;;;;;10.32;2.88;;;;;;;6.89;52.36;97601.41;5038195;28;20033;-75
2021/03/22 04:16:17;;;;;;;10.55;3.45;;;;;;;6.84;51.79;97603.84;5031772;28;20093;-77
2021/03/22 04:18:42;;;;;;;19.40;2.85;;;;;;;6.84;52.38;97601.25;5034749;28;20040;-76
2021/03/22 04:21:11;;;;;;;11.05;2.22;;;;;;;6.89;52.46;97601.41;5051521;28;20039;-75
2021/03/22 04:23:37;;;;;;;8.50;2.60;;;;;;;7.00;51.88;97604.31;5021964;28;20116;-74
2021/03/22 04:26:04;;;;;;;20.33;3.72;;;;;;;7.01;51.59;97598.94;5034824;28;20037;-75
2021/03/22 04:28:30;;;;;;;11.27;2.70;;;;;;;7.16;51.41;97593.44;5034896;28;20495;-75
2021/03/22 04:30:56;;;;;;;17.30;3.95;;;;;;;7.17;51.69;97605.38;5018156;28;20056;-75
2021/03/22 04:33:21;;;;;;;14.75;2.83;;;;;;;7.08;51.16;97604.06;5051377;28;20025;-75
2021/03/22 04:35:47;;;;;;;11.85;2.83;;;;;;;7.16;52.08;97611.56;5044283;28;20040;-75
2021/03/22 04:38:12;;;;;;;11.90;3.15;;;;;;;7.04;51.74;97611.47;5040303;28;20797;-74
2021/03/22 04:40:37;;;;;;;12.25;3.33;;;;;;;7.14;51.99;97610.97;5033827;28;20039;-75
2021/03/22 04:43:03;;;;;;;14.40;3.13;;;;;;;7.16;51.08;97608.97;5042592;28;20368;-75
2021/03/22 04:45:29;;;;;;;12.52;3.17;;;;;;;7.18;51.64;97604.41;5069166;28;20116;-75
2021/03/22 04:47:55;;;;;;;9.82;2.58;;;;;;;7.22;51.36;97615.91;5034314;28;20033;-75
2021/03/22 04:50:23;;;;;;;10.65;2.70;;;;;;;7.08;51.85;97622.19;5035386;28;20047;-76
2021/03/22 04:52:48;;;;;;;9.27;2.78;;;;;;;7.09;51.47;97623.78;5051072;28;20055;-77
2021/03/22 04:55:14;;;;;;;14.10;2.70;;;;;;;7.05;52.33;97617.44;5031019;28;20090;-76
2021/03/22 04:57:40;;;;;;;10.68;3.00;;;;;;;7.08;52.09;97624.78;5034838;28;20040;-76
2021/03/22 05:00:12;;;;;;;11.68;3.60;;;;;;;6.93;51.59;97615.50;5037897;28;20038;-76
2021/03/22 05:02:37;;;;;;;15.55;3.05;;;;;;;7.21;52.42;97623.88;5021316;28;20504;-77
2021/03/22 05:05:05;;;;;;;14.75;3.10;;;;;;;7.01;51.90;97630.00;5031937;28;20028;-76
2021/03/22 05:07:33;;;;;;;14.35;4.03;;;;;;;7.08;52.31;97622.97;5034501;28;20425;-76
2021/03/22 05:09:59;;;;;;;13.68;3.42;;;;;;;6.93;52.53;97625.88;5031233;28;20036;-76
2021/03/22 05:12:24;;;;;;;11.57;3.25;;;;;;;6.98;52.55;97621.88;5035953;28;20037;-77
2021/03/22 05:14:50;;;;;;;10.27;3.10;;;;;;;6.94;52.19;97619.69;5020928;28;20024;-76
2021/03/22 05:17:15;;;;;;;10.55;3.03;;;;;;;7.11;52.51;97619.16;5047743;28;20036;-76
2021/03/22 05:19:40;;;;;;;15.30;3.95;;;;;;;7.12;51.96;97628.53;5054273;28;20037;-76
2021/03/22 05:22:06;;;;;;;10.73;3.97;;;;;;;7.19;51.47;97618.91;5019521;28;20518;-76
2021/03/22 05:24:32;;;;;;;13.43;3.67;;;;;;;6.97;52.81;97621.06;5031805;28;20043;-76
2021/03/22 05:26:57;;;;;;;9.10;3.72;;;;;;;7.05;52.79;97628.56;5029847;28;20036;-76
2021/03/22 05:29:24;;;;;;;11.02;3.25;;;;;;;7.00;52.99;97627.63;5051288;28;20538;-76
2021/03/22 05:31:50;;;;;;;14.55;3.47;;;;;;;7.08;51.79;97627.38;5022612;28;20040;-76
2021/03/22 05:34:16;;;;;;;13.65;4.57;;;;;;;7.25;51.87;97622.47;5037158;28;20020;-76
2021/03/22 05:36:42;;;;;;;14.25;4.68;;;;;;;7.19;52.25;97629.28;5015759;28;20029;-76
2021/03/22 05:39:10;;;;;;;17.92;4.72;;;;;;;7.11;52.13;97622.56;5036920;28;20036;-76
2021/03/22 05:41:49;;;;;;;9.07;4.03;;;;;;;6.96;52.40;97623.84;5037290;28;20052;-76
2021/03/22 05:44:33;;;;;;;8.45;3.28;;;;;;;6.98;51.83;97624.47;5051079;28;20039;-76
2021/03/22 05:47:19;;;;;;;9.23;3.35;;;;;;;6.93;51.88;97628.44;5071560;28;20475;-76
2021/03/22 05:50:03;;;;;;;;;;;;;;;6.58;52.82;97630.66;5047528;28;20036;-76
2021/03/22 05:52:45;;;;;;;12.27;3.17;;;;;;;6.87;52.15;97636.25;5053578;28;19914;-76
2021/03/22 05:55:35;;;;;;;12.63;3.80;;;;;;;6.98;52.46;97638.19;5036473;28;20033;-76
2021/03/22 05:58:31;;;;;;;12.25;3.45;;;;;;;6.84;52.83;97647.84;5065160;28;20044;-75
2021/03/22 06:01:41;;;;;;;12.98;3.75;;;;;;;6.73;53.16;97643.31;5001963;28;20109;-75
2021/03/22 06:04:42;;;;;;;12.18;3.45;;;;;;;6.85;52.95;97648.63;4987210;28;20048;-76
2021/03/22 06:07:08;;;;;;;9.60;3.15;;;;;;;7.15;52.47;97646.25;5025675;28;20044;-76
2021/03/22 06:09:49;;;;;;;9.23;3.90;;;;;;;7.06;53.22;97647.47;5006635;28;20025;-77
2021/03/22 06:12:34;;;;;;;11.10;3.00;;;;;;;6.82;53.20;97655.03;5024689;28;20028;-76
2021/03/22 06:15:13;;;;;;;12.40;4.15;;;;;;;7.01;52.57;97652.50;5019091;28;20044;-76
2021/03/22 06:17:50;;;;;;;12.93;3.88;;;;;;;6.96;52.98;97653.16;5035733;28;20651;-76
2021/03/22 06:20:27;;;;;;;14.90;4.70;;;;;;;7.03;53.44;97663.47;5019190;28;20078;-76
2021/03/22 06:23:35;;;;;;;10.38;3.95;;;;;;;7.06;52.91;97668.19;5047180;28;20507;-76
2021/03/22 06:26:21;;;;;;;10.98;4.88;;;;;;;7.24;52.17;97667.50;5040183;28;20043;-76
2021/03/22 06:28:54;;;;;;;13.05;4.80;;;;;;;7.12;52.72;97673.34;5022803;28;20867;-76
2021/03/22 06:31:21;;;;;;;13.10;5.47;;;;;;;7.39;52.12;97674.97;5046582;28;20036;-76
2021/03/22 06:33:52;;;;;;;11.52;3.42;;;;;;;7.24;52.75;97672.69;5031646;28;20479;-76
2021/03/22 06:36:21;;;;;;;8.95;3.17;;;;;;;7.30;52.28;97666.66;5022065;28;20032;-76
2021/03/22 06:38:53;;;;;;;16.05;5.47;;;;;;;7.37;51.94;97672.59;5026079;28;20365;-76
2021/03/22 06:41:42;;;;;;;15.20;7.57;;;;;;;7.15;53.08;97669.56;5032255;28;20028;-76
2021/03/22 06:44:15;;;;;;;12.85;4.50;;;;;;;7.24;52.53;97670.88;5032042;28;20040;-76
2021/03/22 06:47:02;;;;;;;15.45;4.20;;;;;;;7.09;52.83;97672.97;5061345;28;20036;-76
2021/03/22 06:49:33;;;;;;;11.40;4.53;;;;;;;7.36;52.00;97670.97;5044415;28;20434;-76
2021/03/22 06:52:09;;;;;;;11.43;3.33;;;;;;;7.18;52.51;97681.28;5027591;28;20510;-77
2021/03/22 06:54:43;;;;;;;12.00;3.60;;;;;;;7.46;51.76;97675.69;5033714;28;20025;-77
2021/03/22 06:57:21;;;;;;;10.73;4.65;;;;;;;7.11;52.90;97673.53;5050626;28;20024;-76
2021/03/22 07:00:07;;;;;;;9.93;3.42;;;;;;;7.23;52.15;97679.66;5041322;28;20097;-76
2021/03/22 07:02:59;;;;;;;18.20;5.90;;;;;;;7.19;53.07;97680.28;5024559;28;20036;-76
2021/03/22 07:05:24;;;;;;;14.85;4.38;;;;;;;7.49;52.03;97685.66;5023031;28;20060;-77
2021/03/22 07:08:04;;;;;;;12.98;4.93;;;;;;;7.28;52.76;97674.66;5057255;28;20079;-77
2021/03/22 07:10:42;;;;;;;12.05;4.78;;;;;;;7.22;52.78;97683.25;5050683;28;20493;-77
2021/03/22 07:13:15;;;;;;;12.73;4.50;;;;;;;7.34;52.56;97688.53;5036743;28;20561;-77
2021/03/22 07:15:41;;;;;;;15.38;4.97;;;;;;;7.58;52.79;97688.78;5050583;28;20399;-77
2021/03/22 07:18:27;;;;;;;10.02;4.35;;;;;;;7.36;52.69;97690.94;5031703;28;20588;-77
2021/03/22 07:21:02;;;;;;;;;;;;;;;7.18;54.03;97689.84;5033201;28;20108;-77
2021/03/22 07:23:51;;;;;;;13.82;5.05;;;;;;;7.18;53.88;97678.69;5050124;28;20244;-78
2021/03/22 07:26:35;;;;;;;11.30;3.65;;;;;;;7.49;52.72;97683.06;5067858;28;20432;-77
2021/03/22 07:29:06;;;;;;;16.17;5.65;;;;;;;7.58;53.37;97684.38;5028494;28;20040;-77
2021/03/22 07:31:46;;;;;;;11.77;3.80;;;;;;;7.50;53.09;97687.22;5050543;28;20032;-77
2021/03/22 07:34:30;;;;;;;14.15;5.05;;;;;;;7.60;53.17;97686.75;5034688;28;20032;-77
2021/03/22 07:37:23;;;;;;;13.25;4.07;;;;;;;7.55;51.87;97697.75;5054318;28;20546;-77
2021/03/22 07:40:01;;;;;;;14.18;4.38;;;;;;;7.53;52.63;97693.78;5039178;28;20039;-77
2021/03/22 07:43:01;;;;;;;11.30;4.72;;;;;;;7.58;52.67;97697.31;5021029;28;20078;-77
2021/03/22 07:45:38;;;;;;;11.23;4.18;;;;;;;7.53;52.74;97707.53;5027015;28;20136;-77
2021/03/22 07:48:32;;;;;;;16.38;4.88;;;;;;;6.91;54.40;97707.34;5016738;28;20056;-78
2021/03/22 07:51:21;;;;;;;7.65;3.80;;;;;;;7.54;52.99;97697.94;5010669;28;20030;-77
2021/03/22 07:54:05;;;;;;;13.60;4.95;;;;;;;7.57;52.66;97706.09;5038783;28;20077;-77
2021/03/22 07:56:41;;;;;;;10.80;3.90;;;;;;;7.91;52.17;97704.00;5033239;28;20526;-76
2021/03/22 07:59:12;;;;;;;13.48;6.30;;;;;;;8.16;52.07;97708.38;5065741;28;20066;-77
2021/03/22 08:02:15;;;;;;;14.70;4.75;;;;;;;7.82;51.92;97710.50;5031884;28;20067;-77
2021/03/22 08:04:42;;;;;;;23.75;12.38;;;;;;;8.27;52.15;97717.25;5060007;28;20037;-77
2021/03/22 08:07:18;;;;;;;9.27;3.88;;;;;;;7.74;51.71;97708.16;5016335;28;20028;-77
2021/03/22 08:10:29;;;;;;;13.32;4.97;;;;;;;7.97;51.61;97716.13;5042884;28;20036;-76
2021/03/22 08:13:20;;;;;;;15.27;7.30;;;;;;;7.73;53.44;97719.53;4937943;28;20039;-76
2021/03/22 08:16:06;;;;;;;11.73;5.07;;;;;;;8.13;52.18;97721.78;4956938;28;20043;-76
2021/03/22 08:18:52;;;;;;;10.30;4.05;;;;;;;7.76;52.89;97729.47;4972023;28;20389;-77
2021/03/22 08:21:22;;;;;;;;;;;;;;;7.69;52.35;97727.75;4973198;28;20077;-77
2021/03/22 08:24:02;;;;;;;6.70;3.65;;;;;;;8.15;50.36;97730.13;4972718;28;19914;-76
2021/03/22 08:26:35;;;;;;;9.52;3.67;;;;;;;8.04;51.62;97729.84;4932021;28;20390;-77
2021/03/22 08:29:04;;;;;;;7.05;3.97;;;;;;;8.23;51.09;97733.25;4967849;28;20509;-76
2021/03/22 08:32:06;;;;;;;10.85;3.88;;;;;;;8.07;50.85;97736.38;4973159;28;20137;-77
2021/03/22 08:34:48;;;;;;;10.93;4.80;;;;;;;7.80;52.84;97743.63;4967044;28;20035;-77
2021/03/22 08:37:20;;;;;;;11.60;4.18;;;;;;;8.02;51.66;97734.44;4963278;28;20498;-76
2021/03/22 08:40:08;;;;;;;9.88;3.92;;;;;;;7.81;52.79;97745.19;4965118;28;20257;-77
2021/03/22 08:42:40;;;;;;;8.73;3.80;;;;;;;8.20;51.06;97743.25;4952850;28;20404;-77
2021/03/22 08:45:16;;;;;;;9.80;4.18;;;;;;;8.10;51.90;97753.31;4963467;28;20034;-77
2021/03/22 08:47:47;;;;;;;9.40;3.38;;;;;;;7.82;52.04;97751.97;5023529;28;20055;-77
2021/03/22 08:50:22;;;;;;;8.20;4.13;;;;;;;8.05;50.67;97751.38;5050414;28;20040;-77
2021/03/22 08:52:57;;;;;;;11.10;4.38;;;;;;;7.81;52.45;97750.38;5015639;28;20427;-78
2021/03/22 08:55:24;;;;;;;8.53;3.67;;;;;;;8.01;52.32;97756.19;5043186;28;20028;-77
2021/03/22 08:57:53;;;;;;;10.00;3.47;;;;;;;8.04;52.58;97771.31;5023992;28;20120;-78
2021/03/22 09:00:45;;;;;;;9.73;4.57;;;;;;;7.61;53.07;97756.50;5055424;28;20032;-78
2021/03/22 09:03:13;;;;;;;9.40;3.80;;;;;;;8.26;52.07;97757.97;5038893;28;20511;-79
2021/03/22 09:05:41;;;;;;;8.70;4.07;;;;;;;8.48;51.62;97754.97;5050736;28;20045;-77
2021/03/22 09:08:21;;;;;;;9.90;3.28;;;;;;;8.18;51.37;97759.03;5025146;28;20021;-77
2021/03/22 09:10:53;;;;;;;5.75;3.40;;;;;;;8.62;50.74;97751.25;5023096;28;20031;-77
2021/03/22 09:13:32;;;;;;;7.95;3.47;;;;;;;8.77;51.00;97754.25;5041756;28;20271;-77
2021/03/22 09:16:04;;;;;;;10.85;4.45;;;;;;;8.76;50.23;97749.28;5031836;28;20060;-77
2021/03/22 09:18:31;;;;;;;10.23;3.45;;;;;;;8.99;49.53;97751.19;5050828;28;20100;-76
2021/03/22 09:21:25;;;;;;;11.13;3.55;;;;;;;8.18;50.55;97753.06;5022265;28;20055;-78
2021/03/22 09:23:51;;;;;;;10.95;4.07;;;;;;;8.90;49.77;97753.28;5044388;28;20448;-76
2021/03/22 09:26:17;;;;;;;11.70;4.43;;;;;;;9.18;49.18;97760.53;5025275;28;20037;-77
2021/03/22 09:28:58;;;;;;;7.03;2.90;;;;;;;9.06;48.28;97758.91;5009222;28;20534;-77
2021/03/22 09:31:28;;;;;;;7.05;3.05;;;;;;;9.28;47.62;97759.22;5023355;28;20025;-77
2021/03/22 09:33:58;;;;;;;6.70;3.20;;;;;;;8.24;50.09;97759.97;5020476;28;20032;-76
2021/03/22 09:36:37;;;;;;;5.80;2.22;;;;;;;8.79;48.12;97767.81;5015952;28;20040;-78
2021/03/22 09:39:05;;;;;;;9.23;2.88;;;;;;;8.88;48.95;97765.72;5001484;28;20043;-77
2021/03/22 09:41:56;;;;;;;5.22;2.50;;;;;;;8.61;49.42;97771.19;5017922;28;20037;-77
2021/03/22 09:44:28;;;;;;;8.52;3.03;;;;;;;8.18;49.37;97776.41;5029272;28;20036;-77
2021/03/22 09:47:08;;;;;;;4.95;2.78;;;;;;;8.41;49.82;97779.19;5003466;28;20506;-77
2021/03/22 09:50:00;;;;;;;8.20;3.90;;;;;;;8.27;49.37;97782.09;5063948;28;20037;-78
2021/03/22 09:52:27;;;;;;;8.20;2.63;;;;;;;9.05;48.04;97776.28;5041800;28;20040;-77
2021/03/22 09:54:53;;;;;;;5.88;2.67;;;;;;;8.76;48.58;97778.63;5042077;28;20517;-77
2021/03/22 09:57:26;;;;;;;9.13;3.20;;;;;;;8.63;48.02;97782.16;5048516;28;20668;-77
2021/03/22 10:00:19;;;;;;;5.60;2.03;;;;;;;8.89;48.96;97784.66;5046110;28;20082;-76
2021/03/22 10:03:07;;;;;;;7.60;2.75;;;;;;;9.43;47.30;97785.59;5045703;28;20415;-76
2021/03/22 10:05:45;;;;;;;4.97;2.67;;;;;;;9.14;47.69;97779.38;5003870;28;20677;-76
2021/03/22 10:08:10;;;;;;;7.40;2.33;;;;;;;9.45;47.57;97782.75;5056809;28;20032;-77
2021/03/22 10:10:49;;;;;;;6.75;2.67;;;;;;;9.10;46.83;97773.84;5060232;28;20498;-77
2021/03/22 10:13:20;;;;;;;6.63;3.28;;;;;;;9.06;47.30;97780.47;5019032;28;20032;-76
2021/03/22 10:15:58;;;;;;;7.32;3.13;;;;;;;8.71;48.27;97777.69;5026940;28;20036;-78
2021/03/22 10:18:41;;;;;;;8.38;2.95;;;;;;;8.61;48.87;97789.38;5033961;28;20505;-76
2021/03/22 10:21:10;;;;;;;5.32;2.63;;;;;;;9.04;49.01;97794.69;5023272;28;20036;-77
2021/03/22 10:23:50;;;;;;;5.18;2.97;;;;;;;8.67;49.41;97800.72;5024221;28;20024;-77
2021/03/22 10:26:29;;;;;;;8.23;2.80;;;;;;;8.57;49.75;97792.63;5037215;28;20040;-76
2021/03/22 10:29:21;;;;;;;8.05;3.05;;;;;;;8.63;49.38;97799.53;5016685;28;20471;-77
2021/03/22 10:32:17;;;;;;;9.27;3.15;;;;;;;9.05;48.27;97798.84;5058444;28;20037;-77
2021/03/22 10:35:05;;;;;;;8.00;3.00;;;;;;;8.91;48.93;97798.22;5047063;28;20039;-77
2021/03/22 10:37:38;;;;;;;5.55;2.88;;;;;;;9.33;47.91;97793.13;5046823;28;20059;-76
2021/03/22 10:40:07;;;;;;;4.68;2.72;;;;;;;9.59;47.14;97804.16;5018727;28;20120;-76
2021/03/22 10:42:39;;;;;;;8.38;3.08;;;;;;;9.59;47.34;97796.38;5017909;28;20032;-76
2021/03/22 10:45:41;;;;;;;7.65;2.70;;;;;;;9.62;46.66;97801.13;5011473;28;20036;-76
2021/03/22 10:48:27;;;;;;;6.32;2.78;;;;;;;9.64;47.68;97804.28;4996515;28;20373;-77
2021/03/22 10:51:04;;;;;;;5.20;2.63;;;;;;;9.78;47.04;97799.69;5051911;28;20024;-76
2021/03/22 10:53:30;;;;;;;6.45;2.80;;;;;;;9.98;46.26;97791.59;5038375;28;20495;-77
2021/03/22 10:55:56;;;;;;;5.32;2.55;;;;;;;9.99;47.35;97790.53;5039077;28;20126;-76
2021/03/22 10:58:27;;;;;;;10.35;3.08;;;;;;;9.69;46.57;97797.41;5008479;28;20495;-76
2021/03/22 11:00:59;;;;;;;8.73;2.80;;;;;;;9.62;46.65;97803.72;4998146;28;20034;-76
2021/03/22 11:03:25;;;;;;;8.38;3.10;;;;;;;9.81;47.09;97794.81;5017974;28;20457;-76
2021/03/22 11:05:53;;;;;;;5.78;2.80;;;;;;;9.77;46.92;97792.88;5043407;28;20372;-76
2021/03/22 11:08:27;;;;;;;6.57;3.08;;;;;;;9.39;47.62;97792.25;5010200;28;20029;-76
2021/03/22 11:11:19;;;;;;;4.97;2.50;;;;;;;9.59;47.31;97801.56;5034526;28;20029;-77
2021/03/22 11:13:47;;;;;;;6.43;2.63;;;;;;;9.87;46.76;97804.34;5014662;28;20025;-76
2021/03/22 11:16:19;;;;;;;4.03;2.25;;;;;;;9.66;46.71;97799.66;5031846;28;20545;-76
2021/03/22 11:18:45;;;;;;;3.85;1.70;;;;;;;9.97;45.71;97795.19;5041847;28;20264;-77
2021/03/22 11:21:10;;;;;;;4.95;1.67;;;;;;;10.21;45.42;97802.00;5022829;28;20398;-77
2021/03/22 11:23:43;;;;;;;5.55;2.08;;;;;;;9.83;46.14;97798.00;5020332;28;20021;-77
2021/03/22 11:26:25;;;;;;;7.22;2.20;;;;;;;9.75;45.64;97806.13;5049839;28;20349;-76
2021/03/22 11:28:57;;;;;;;5.22;2.00;;;;;;;9.73;46.21;97800.34;5043968;28;20533;-77
2021/03/22 11:31:27;;;;;;;4.45;1.90;;;;;;;10.29;45.28;97806.84;5021897;28;20075;-77
2021/03/22 11:34:41;;;;;;;5.65;2.35;;;;;;;9.44;47.12;97807.97;4999262;28;20112;-77
2021/03/22 11:37:25;;;;;;;4.63;2.47;;;;;;;10.15;46.02;97813.31;4975986;28;20514;-76
2021/03/22 11:40:18;;;;;;;6.35;2.30;;;;;;;9.99;45.90;97808.75;5046206;28;20032;-76
2021/03/22 11:43:42;;;;;;;5.28;2.78;;;;;;;9.83;45.64;97816.19;5051127;28;20059;-76
2021/03/22 11:46:15;;;;;;;5.07;2.20;;;;;;;9.91;46.16;97812.50;5012072;28;20059;-76
2021/03/22 11:48:41;;;;;;;8.05;2.50;;;;;;;10.32;45.22;97808.25;5027120;28;20108;-76
2021/03/22 11:51:11;;;;;;;6.55;2.25;;;;;;;9.80;46.90;97808.84;5036465;28;20448;-77
2021/03/22 11:54:07;;;;;;;4.80;2.58;;;;;;;9.50;47.53;97808.88;5060423;28;20275;-77
2021/03/22 11:56:36;;;;;;;;;;;;;;;9.29;48.70;97812.78;5004046;28;20043;-77
2021/03/22 11:59:20;;;;;;;3.88;1.90;;;;;;;9.51;48.30;97800.06;5023354;28;19919;-76
2021/03/22 12:02:19;;;;;;;5.30;2.15;;;;;;;9.98;46.78;97812.38;5042976;28;20033;-76
2021/03/22 12:05:03;;;;;;;6.15;2.50;;;;;;;10.05;45.86;97808.66;5022528;28;20032;-76
2021/03/22 12:07:58;;;;;;;5.32;2.25;;;;;;;10.27;44.71;97802.91;5043255;28;20495;-76
2021/03/22 12:10:31;;;;;;;4.85;2.50;;;;;;;10.04;46.73;97798.47;5056301;28;20060;-76
2021/03/22 12:12:59;;;;;;;4.60;2.33;;;;;;;10.13;47.25;97805.72;5040392;28;20037;-77